Latest Coastal Weather Observations for Townsville

IDQ60701

Issued at 7:55 am EST Wednesday 3 September 2014 (issued every 10 minutes, with the page automatically refreshed every 10 minutes)

About coastal observations | Map of coastal stations | Coastal observations for QLD | Marine services | Other Formats
Station Details ID: 032040 Name: TOWNSVILLE AERO Lat: -19.25 Lon: 146.77 Height: 4.34 m
Data from the previous 72 hours. | See also: Recent months at Townsville
Date/Time
EST
Temp

°C
Wind Pressure Rain
since 9am
mm
Weather Cloud Vis
km
Sea
Height
m
Swell
Dir
 
Speed
knots
Gust
knots
hPa Trend Height
m
Period
s
Dir
03/07:30am 20.3 SW 14 18 1016.8 - 0.0 - - 10 - - - -
03/07:00am 18.9 SW 11 13 1016.5 - 0.0 - - 10 - - - -
03/06:30am 17.6 SSW 13 15 1016.3 - 0.0 - - 10 - - - -
03/06:00am 17.8 SSW 14 16 1015.9 R 0.0 Fine Clear 40 - - - -
03/05:30am 18.5 SW 9 10 1015.5 - 0.0 - - 10 - - - -
03/05:00am 15.4 SE 1 4 1015.2 - 0.0 - - 10 - - - -
03/04:30am 15.7 SSW 6 6 1014.8 - 0.0 - - 10 - - - -
03/04:00am 15.8 WSW 6 7 1014.8 - 0.0 - - 10 - - - -
03/03:30am 15.8 WSW 4 5 1014.9 - 0.0 - - 10 - - - -
03/03:00am 15.1 W 4 5 1014.9 - 0.0 - - 10 - - - -
03/02:30am 14.4 WNW 5 6 1015.0 - 0.0 - - 10 - - - -
03/02:00am 15.8 CALM 0 6 1015.4 - 0.0 - - 10 - - - -
03/01:30am 15.6 CALM 0 1 1015.3 - 0.0 - - 10 - - - -
03/01:00am 16.4 CALM 0 0 1015.5 - 0.0 - - 10 - - - -
03/12:30am 17.6 CALM 0 0 1015.7 - 0.0 - - 10 - - - -
03/12:00am 17.0 S 0 0 1015.7 - 0.0 - - 10 - - - -
 
Date/Time
EST
Temp

°C
Wind Pressure Rain
since 9am
mm
Weather Cloud Vis
km
Sea
Height
m
Swell
Dir
 
Speed
knots
Gust
knots
hPa Trend Height
m
Period
s
Dir
02/11:30pm 18.1 WSW 4 7 1015.6 - 0.0 - - 10 - - - -
02/11:00pm 17.7 CALM 0 0 1015.6 - 0.0 - - 10 - - - -
02/10:30pm 17.8 CALM 0 0 1015.7 - 0.0 - - 10 - - - -
02/10:00pm 18.6 CALM 0 0 1015.6 - 0.0 - - 10 - - - -
02/09:30pm 18.8 WSW 3 4 1015.5 - 0.0 - - 10 - - - -
02/09:00pm 18.5 WNW 3 6 1015.4 F 0.0 Haze Clear 30 - - - -
02/08:30pm 18.8 N 1 4 1015.2 - 0.0 - - 10 - - - -
02/08:00pm 19.7 N 5 6 1015.0 - 0.0 - - 10 - - - -
02/07:30pm 20.0 N 5 7 1014.8 - 0.0 - - 10 - - - -
02/07:00pm 20.5 NNW 5 7 1014.3 - 0.0 - - 10 - - - -
02/06:30pm 21.4 N 8 10 1014.1 - 0.0 - - 10 - - - -
02/06:00pm 21.7 N 8 10 1014.0 S 0.0 Haze Clear 30 - - - -
02/05:30pm 22.5 N 11 14 1014.0 - 0.0 - - 10 - - - -
02/05:00pm 23.6 N 10 14 1013.9 - 0.0 - - 10 - - - -
02/04:30pm 23.9 N 9 12 1014.0 - 0.0 - - 10 - - - -
02/04:00pm 24.4 N 9 12 1013.7 - 0.0 - - 10 - - - -
02/03:30pm 25.1 N 9 12 1013.5 - 0.0 - - 10 - - - -
02/03:00pm 26.8 NNE 8 10 1013.4 F 0.0 Haze Clear 35 - - - -
02/02:30pm 26.8 NE 8 11 1013.8 - 0.0 - - 10 - - - -
02/02:00pm 26.8 ENE 13 15 1014.2 - 0.0 - - 10 - - - -
02/01:30pm 26.5 NE 11 14 1014.6 - 0.0 - - 10 - - - -
02/01:00pm 26.1 NE 11 14 1015.2 - 0.0 - - 10 - - - -
02/12:30pm 25.9 NE 11 14 1015.6 - 0.0 - - 10 - - - -
02/12:00pm 25.3 NE 9 13 1016.3 F 0.0 Haze Clear 50 - - - -
02/11:30am 25.4 NE 9 12 1017.0 - 0.0 - - 10 - - - -
02/11:00am 25.0 NE 6 10 1017.5 - 0.0 - - 10 - - - -
02/10:30am 24.3 NW 5 8 1017.8 - 0.0 - - 10 - - - -
02/10:00am 24.4 NNW 6 10 1018.2 - 0.0 - - 10 - - - -
02/09:30am 23.0 NW 5 8 1018.7 - 0.0 - - 10 - - - -
02/09:00am 22.0 NW 1 5 1018.7 F 0.0 Haze Clear 35 - - - -
02/08:30am 20.3 NW 3 4 1018.4 - 0.0 - - 10 - - - -
02/08:00am 18.2 WSW 2 4 1018.5 - 0.0 - - 10 - - - -
02/07:30am 16.2 CALM 0 0 1018.3 - 0.0 - - 10 - - - -
02/07:00am 14.1 CALM 0 0 1018.2 - 0.0 - - 10 - - - -
02/06:30am 14.0 SSW 1 4 1018.0 - 0.0 Shallow fog - 10 - - - -
02/06:00am 13.8 CALM 0 0 1017.7 F 0.0 Shallow fog Clear 25 - - - -
02/05:30am 13.9 CALM 0 0 1017.5 - 0.0 - - 10 - - - -
02/05:00am 13.6 CALM 0 0 1017.1 - 0.0 - - 10 - - - -
02/04:30am 14.4 CALM 0 0 1017.1 - 0.0 - - 10 - - - -
02/04:00am 14.2 CALM 0 0 1017.2 - 0.0 - - 10 - - - -
02/03:30am 14.3 CALM 0 0 1017.1 - 0.0 - - 10 - - - -
02/03:00am 14.8 CALM 0 0 1017.5 - 0.0 - - 10 - - - -
02/02:30am 14.9 CALM 0 0 1017.6 - 0.0 - - 10 - - - -
02/02:00am 14.9 SW 3 4 1017.8 - 0.0 - - 10 - - - -
02/01:30am 15.4 S 1 3 1017.9 - 0.0 - - 10 - - - -
02/01:00am 16.0 - 1 5 1018.1 - 0.0 - - 10 - - - -
02/12:30am 17.0 S 4 4 1018.2 - 0.0 - - 10 - - - -
02/12:00am 17.7 SSW 4 5 1018.2 - 0.0 - - 10 - - - -
 
Date/Time
EST
Temp

°C
Wind Pressure Rain
since 9am
mm
Weather Cloud Vis
km
Sea
Height
m
Swell
Dir
 
Speed
knots
Gust
knots
hPa Trend Height
m
Period
s
Dir
01/11:30pm 16.8 CALM 0 0 1018.3 - 0.0 - - 10 - - - -
01/11:00pm 16.9 CALM 0 0 1018.2 - 0.0 - - 10 - - - -
01/10:30pm 17.2 CALM 0 0 1018.1 - 0.0 - - 10 - - - -
01/10:00pm 17.6 CALM 0 0 1018.0 - 0.0 - - 10 - - - -
01/09:30pm 17.4 CALM 0 0 1018.2 - 0.0 - - 10 - - - -
01/09:00pm 17.7 NNW 3 4 1018.2 F 0.0 Haze Clear 40 - - - -
01/08:30pm 18.5 NNW 4 5 1018.0 - 0.0 - - 10 - - - -
01/08:00pm 19.1 N 5 5 1017.9 - 0.0 - - 10 - - - -
01/07:30pm 18.8 N 1 4 1017.4 - 0.0 - - 10 - - - -
01/07:00pm 20.2 NNE 5 7 1017.1 - 0.0 - - 10 - - - -
01/06:30pm 20.4 NE 8 10 1016.9 - 0.0 - - 10 - - - -
01/06:00pm 21.1 NE 9 10 1016.5 F 0.0 Haze Clear 40 - - - -
01/05:30pm 22.0 NE 10 12 1016.2 - 0.0 - Mostly clear 10 - - - -
01/05:00pm 22.8 NE 11 14 1016.0 - 0.0 - Mostly clear 10 - - - -
01/04:30pm 23.4 ENE 10 12 1015.9 - 0.0 - Mostly clear 10 - - - -
01/04:00pm 23.7 NE 12 15 1015.7 - 0.0 - Mostly clear 10 - - - -
01/03:30pm 24.2 NE 11 14 1015.8 - 0.0 - Mostly clear 10 - - - -
01/03:00pm 24.6 NE 10 14 1016.1 F 0.0 Haze Mostly clear 45 - - - -
01/02:30pm 24.4 NE 11 15 1016.2 - 0.0 - - 10 - - - -
01/02:00pm 24.3 ENE 10 13 1016.5 - 0.0 - - 10 - - - -
01/01:30pm 24.4 NE 10 14 1016.8 - 0.0 - - 10 - - - -
01/01:00pm 23.9 NE 9 14 1017.6 - 0.0 - - 10 - - - -
01/12:30pm 23.7 NE 8 11 1018.1 - 0.0 - - 10 - - - -
01/12:00pm 23.9 NE 7 10 1018.7 R 0.0 Haze Mostly clear 40 - - - -
01/11:30am 24.6 NE 8 13 1018.9 - 0.0 - Mostly clear 10 - - - -
01/11:00am 24.0 ENE 8 14 1019.1 - 0.0 - Mostly clear 10 - - - -
01/10:30am 23.7 ENE 7 10 1019.3 - 0.0 - Mostly clear 10 - - - -
01/10:00am 23.8 NNE 7 11 1019.4 - 0.0 - Mostly clear 10 - - - -
01/09:30am 23.0 SE 7 9 1019.4 - 0.0 - Mostly clear 10 - - - -
01/09:00am 22.6 SE 6 9 1019.4 R 0.0 Haze Mostly clear 35 - - - -
01/08:30am 21.3 SSE 5 6 1019.2 - 0.0 - Mostly clear 10 - - - -
01/08:00am 18.7 W 1 4 1018.7 - 0.0 - Mostly clear 10 - - - -
01/07:30am 15.8 CALM 0 0 1018.4 - 0.0 - Mostly clear 10 - - - -
01/07:00am 14.1 CALM 0 0 1018.0 - 0.0 Shallow fog Mostly clear 10 - - - -
01/06:30am 13.2 CALM 0 0 1017.7 - 0.0 Shallow fog Mostly clear 10 - - - -
01/06:00am 13.0 CALM 0 0 1017.3 F 0.0 Shallow fog Mostly clear 15 - - - -
01/05:30am 13.6 CALM 0 0 1017.1 - 0.0 - - 10 - - - -
01/05:00am 13.5 CALM 0 0 1016.9 - 0.0 - - 10 - - - -
01/04:30am 13.2 CALM 0 0 1016.8 - 0.0 - - 10 - - - -
01/04:00am 14.2 CALM 0 0 1016.8 - 0.0 - - 10 - - - -
01/03:30am 14.1 CALM 0 0 1016.7 - 0.0 - Partly cloudy 10 - - - -
01/03:00am 14.3 WNW 4 5 1016.9 - 0.0 - Cloudy 10 - - - -
01/02:30am 14.5 CALM 0 0 1016.9 - 0.0 - - 10 - - - -
01/02:00am 15.0 CALM 0 0 1017.2 - 0.0 - - 10 - - - -
01/01:30am 16.1 CALM 0 0 1017.5 - 0.0 - Partly cloudy 10 - - - -
01/01:00am 16.8 CALM 0 0 1017.7 - 0.0 - Partly cloudy 10 - - - -
01/12:30am 16.1 WSW 4 4 1018.0 - 0.0 - Partly cloudy 10 - - - -
01/12:00am 15.8 WSW 5 5 1018.0 - 0.0 - Cloudy 10 - - - -
 
Date/Time
EST
Temp

°C
Wind Pressure Rain
since 9am
mm
Weather Cloud Vis
km
Sea
Height
m
Swell
Dir
 
Speed
knots
Gust
knots
hPa Trend Height
m
Period
s
Dir
31/11:30pm 15.8 CALM 0 0 1018.0 - 0.0 - Partly cloudy 10 - - - -
31/11:00pm 17.2 SSE 5 6 1018.0 - 0.0 - Partly cloudy 10 - - - -
31/10:30pm 18.4 SSE 6 7 1017.9 - 0.0 - Mostly clear 10 - - - -
31/10:00pm 18.5 SE 6 7 1017.9 - 0.0 - Mostly clear 10 - - - -
31/09:30pm 18.6 SE 6 7 1017.9 - 0.0 - Mostly clear 10 - - - -
31/09:00pm 19.6 ESE 5 6 1017.8 R 0.0 Fine Mostly clear 30 - - - -
31/08:30pm 19.7 E 6 9 1017.6 - 0.0 - Mostly clear 10 - - - -
31/08:00pm 20.0 E 9 12 1017.2 - 0.0 - - 10 - - - -
31/07:30pm 20.4 E 8 11 1017.0 - 0.0 - - 10 - - - -
31/07:00pm 20.2 ENE 8 10 1016.7 - 0.0 - - 10 - - - -
31/06:30pm 20.5 ENE 8 11 1016.2 - 0.0 - - 10 - - - -
31/06:00pm 21.2 ENE 9 14 1015.7 R 0.0 Haze Clear 35 - - - -
31/05:30pm 22.3 E 12 17 1015.3 - 0.0 - - 10 - - - -
31/05:00pm 23.0 ENE 15 20 1015.1 - 0.0 - - 10 - - - -
31/04:30pm 23.6 ENE 15 19 1014.8 - 0.0 - - 10 - - - -
31/04:00pm 24.4 ENE 17 20 1014.6 - 0.0 - Mostly clear 10 - - - -
31/03:30pm 24.8 ENE 15 19 1014.5 - 0.0 - Mostly clear 10 - - - -
31/03:00pm 24.7 ENE 16 20 1014.6 F 0.0 Haze Mostly clear 40 - - - -
31/02:30pm 25.0 NE 15 18 1015.0 - 0.0 - - 10 - - - -
31/02:00pm 25.4 NE 15 18 1015.3 - 0.0 - - 10 - - - -
31/01:30pm 24.9 ENE 11 14 1015.8 - 0.0 - - 10 - - - -
31/01:00pm 24.6 NE 12 15 1016.1 - 0.0 - - 10 - - - -
31/12:30pm 24.4 NE 11 14 1016.6 - 0.0 - - 10 - - - -
31/12:00pm 24.0 NE 10 16 1017.1 F 0.0 Smoke Mostly clear 25 - - - -
31/11:30am 24.0 NE 10 14 1017.5 - 0.0 - Mostly clear 10 - - - -
31/11:00am 23.9 NNE 10 15 1017.9 - 0.0 - Mostly clear 10 - - - -
31/10:30am 23.9 NE 9 12 1018.3 - 0.0 - Mostly clear 10 - - - -
31/10:00am 23.8 E 5 10 1018.5 - 0.0 - Mostly clear 10 - - - -
31/09:30am 22.9 SE 3 7 1018.7 - 0.0 - Mostly clear 10 - - - -
31/09:00am 22.4 SSE 4 6 1018.8 F 0.0 Fine Mostly clear 25 - - - -
31/08:30am 20.8 S 3 5 1018.7 - 0.0 - - 10 - - - -
31/08:00am 19.3 CALM 0 0 1018.5 - 0.0 - - 10 - - - -

Other Formats:

Comma delimited format used in spreadsheet applications
http://www.bom.gov.au/fwo/IDQ60701/IDQ60701.94294.axf

JavaScript Object Notation format (JSON) in row-major order
http://www.bom.gov.au/fwo/IDQ60701/IDQ60701.94294.json